Everett, WA (98201)

11:42 AM PDT on March 31, 2015 (GMT -0700)
harborview, everett, wa | | Change Station
CLOSE
Current Station
Personal Weather Station
Location: Everett, WA
Elevation: 85 ft
Nearby Weather Stations

Elev 85 ft 47.96 °N, 122.25 °W | Updated 53 seconds ago

Overcast
Overcast
47.1 °F
Feels Like 47 °F
N
0.0
Wind Variable Wind from SSW
Gusts 2.0 mph

Today
High -- | Low -- °F
--% Chance of Precip.
Yesterday
High -- | Low -- °F
Precip. -- in
6:49 AM 7:37 PM
Waxing Gibbous, 88% visible
Pressure 30.08 in
Visibility 10.0 miles
Clouds Scattered Clouds 700 ft
Mostly Cloudy 1500 ft
Overcast 3000 ft
Windchill 47 °F
Dew Point 45 °F
Humidity 92%
Rainfall 0.42 in
Snow Depth Not available.
UV 2 out of 12
Pollen 3.60 out of 12
Air Quality Not available.
Flu Activity Not available.
SPECI KPAE 311827Z 20006KT 10SM -RA SCT007 BKN015 OVC030 07/04 A3008 RMK AO2 P0001 T00720044

More Conditions Fewer Conditions

Pressure 30.08 in
Visibility 10.0 miles
Clouds Scattered Clouds 700 ft
Mostly Cloudy 1500 ft
Overcast 3000 ft
Windchill 47 °F
Dew Point 45 °F
Humidity 92%
Rainfall 0.42 in
Snow Depth Not available.
UV 2 out of 12
Pollen 3.60 out of 12
Air Quality Not available.
Flu Activity Not available.
SPECI KPAE 311827Z 20006KT 10SM -RA SCT007 BKN015 OVC030 07/04 A3008 RMK AO2 P0001 T00720044

More Conditions Fewer Conditions

10-Day Weather Forecast

Almanac

Astronomy

Mar. 31, 2015 Rise Set
Actual Time
Civil Twilight
Nautical Twilight
Astronomical Twilight
Moon
Length of Visible Light
Length of Day
Tomorrow will be .
, % of the Moon is Illuminated

Today's Extremes

State Highs State Lows

Community

WunderPhotos

Upload Photos

1,809,792 photos uploaded!

WunderBlogs® & News

Nearby

Air Quality

  Air Quality AQ Index Pollutant
Not available.

Snow Depth

Station Depth Elevation

Earthquake Activity

City Distance Mag. Time & Date
Minimum magnitude displayed is 2.5.

Coastal Water Temperatures

Place Temperature

Stations

Nearby Weather Stations

Station Location Temp. Windchill Dew Point Humidity Wind Precip. Elev Updated Type